createdAt,value
2019-01-05T00:02:14.418Z,103243.92
2019-01-05T00:05:01.674Z,103247.25
2019-01-05T00:07:41.865Z,103250.11
2019-01-05T00:10:19.094Z,103244.81
2019-01-05T00:12:58.950Z,103248.80
2019-01-05T00:15:46.225Z,103249.80
2019-01-05T00:18:33.317Z,103245.45
2019-01-05T00:21:05.051Z,103241.59
2019-01-05T00:23:36.247Z,103240.71
2019-01-05T00:26:16.171Z,103237.11
2019-01-05T00:28:47.348Z,103229.33
2019-01-05T00:31:22.504Z,103222.79
2019-01-05T00:33:59.215Z,103214.62
2019-01-05T00:36:48.944Z,103216.36
2019-01-05T00:39:37.912Z,103210.20
2019-01-05T00:42:18.930Z,103222.19
2019-01-05T00:44:52.958Z,103224.41
2019-01-05T00:47:29.326Z,103223.17
2019-01-05T00:50:05.675Z,103219.39
2019-01-05T00:52:54.775Z,103220.38
2019-01-05T00:55:31.982Z,103212.85
2019-01-05T00:58:14.929Z,103213.59
2019-01-05T01:00:51.989Z,103210.73
2019-01-05T01:03:22.901Z,103209.98
2019-01-05T01:06:09.104Z,103212.53
2019-01-05T01:08:45.799Z,103210.05
2019-01-05T01:11:25.517Z,103209.56
2019-01-05T01:13:59.231Z,103206.83
2019-01-05T01:16:42.246Z,103213.23
2019-01-05T01:19:22.038Z,103212.81
2019-01-05T01:21:59.239Z,103207.64
2019-01-05T01:24:30.484Z,103206.33
2019-01-05T01:27:04.152Z,103206.41
2019-01-05T01:29:40.851Z,103215.23
2019-01-05T01:32:17.326Z,103201.73
2019-01-05T01:34:50.897Z,103206.70
2019-01-05T01:37:38.183Z,103208.97
2019-01-05T01:40:09.440Z,103206.35
2019-01-05T01:42:40.335Z,103205.41
2019-01-05T01:45:11.216Z,103207.66
2019-01-05T01:47:58.398Z,103214.70
2019-01-05T01:50:32.046Z,103206.00
2019-01-05T01:53:22.098Z,103207.23
2019-01-05T01:56:01.626Z,103207.73
2019-01-05T01:58:41.380Z,103214.27
2019-01-05T02:01:12.786Z,103215.02
2019-01-05T02:04:00.407Z,103217.63
2019-01-05T02:06:48.718Z,103219.23
2019-01-05T02:09:20.935Z,103208.77
2019-01-05T02:12:07.472Z,103209.58
2019-01-05T02:14:42.871Z,103211.31
2019-01-05T02:17:32.111Z,103206.08
2019-01-05T02:20:33.249Z,103200.84
2019-01-05T02:23:43.866Z,103196.43
2019-01-05T02:26:47.778Z,103200.61
2019-01-05T02:29:46.666Z,103192.77
2019-01-05T02:33:01.010Z,103200.08
2019-01-05T02:36:07.713Z,103209.70
2019-01-05T02:38:56.372Z,103204.39
2019-01-05T02:41:52.307Z,103205.91
2019-01-05T02:44:34.980Z,103202.27
2019-01-05T02:47:23.683Z,103201.39
2019-01-05T02:50:21.415Z,103200.89
2019-01-05T02:53:11.823Z,103197.36
2019-01-05T02:56:19.834Z,103195.66
2019-01-05T02:59:27.158Z,103189.52
2019-01-05T03:02:35.230Z,103183.89
2019-01-05T03:05:37.447Z,103189.62
2019-01-05T03:08:32.229Z,103198.77
2019-01-05T03:11:21.008Z,103191.81
2019-01-05T03:14:26.574Z,103197.47
2019-01-05T03:17:24.780Z,103190.92
2019-01-05T03:20:30.331Z,103192.69
2019-01-05T03:23:43.144Z,103190.08
2019-01-05T03:26:17.002Z,103189.19
2019-01-05T03:29:22.575Z,103182.65
2019-01-05T03:32:15.193Z,103184.38
2019-01-05T03:35:00.834Z,103179.61
2019-01-05T03:38:16.979Z,103176.99
2019-01-05T03:41:01.957Z,103180.59
2019-01-05T03:43:52.764Z,103171.02
2019-01-05T03:50:13.635Z,103168.95
2019-01-05T03:53:05.347Z,103169.45
2019-01-05T03:55:48.019Z,103172.13
2019-01-05T03:58:48.699Z,103158.63
2019-01-05T04:01:59.672Z,103152.83
2019-01-05T04:04:48.663Z,103158.29
2019-01-05T04:07:49.495Z,103155.44
2019-01-05T04:10:39.725Z,103152.30
2019-01-05T04:13:13.549Z,103150.06
2019-01-05T04:16:08.221Z,103151.80
2019-01-05T04:19:23.554Z,103155.16
2019-01-05T04:22:22.969Z,103147.64
2019-01-05T04:25:37.991Z,103145.52
2019-01-05T04:28:36.039Z,103143.12
2019-01-05T04:31:39.540Z,103139.72
2019-01-05T04:34:44.942Z,103141.32
2019-01-05T04:38:02.960Z,103139.95
2019-01-05T04:40:51.526Z,103148.67
2019-01-05T04:43:49.275Z,103145.92
2019-01-05T04:46:28.789Z,103147.16
2019-01-05T04:49:35.840Z,103150.16
2019-01-05T04:52:33.362Z,103151.08
2019-01-05T04:55:45.022Z,103150.59
2019-01-05T04:58:43.828Z,103146.66
2019-01-05T05:01:43.091Z,103156.38
2019-01-05T05:04:23.112Z,103148.05
2019-01-05T05:07:33.120Z,103155.95
2019-01-05T05:10:21.835Z,103150.48
2019-01-05T05:13:16.823Z,103154.05
2019-01-05T05:16:14.484Z,103153.16
2019-01-05T05:19:16.911Z,103157.64
2019-01-05T05:21:59.202Z,103148.20
2019-01-05T05:24:47.374Z,103151.52
2019-01-05T05:27:35.862Z,103149.52
2019-01-05T05:30:45.881Z,103148.70
2019-01-05T05:33:46.940Z,103153.13
2019-01-05T05:36:40.788Z,103147.47
2019-01-05T05:39:26.179Z,103143.11
2019-01-05T05:42:32.134Z,103148.52
2019-01-05T05:45:25.132Z,103151.33
2019-01-05T05:48:32.003Z,103151.27
2019-01-05T05:51:23.945Z,103144.05
2019-01-05T05:54:33.958Z,103148.42
2019-01-05T05:57:40.840Z,103149.16
2019-01-05T06:00:32.382Z,103143.75
2019-01-05T06:03:11.856Z,103136.26
2019-01-05T06:05:56.840Z,103137.63
2019-01-05T06:09:01.655Z,103131.41
2019-01-05T06:12:00.843Z,103129.35
2019-01-05T06:15:13.762Z,103130.39
2019-01-05T06:17:56.675Z,103129.45
2019-01-05T06:21:08.289Z,103135.06
2019-01-05T06:24:17.217Z,103135.13
2019-01-05T06:27:10.365Z,103137.81
2019-01-05T06:30:27.343Z,103134.87
2019-01-05T06:33:29.743Z,103127.52
2019-01-05T06:36:28.937Z,103126.73
2019-01-05T06:39:14.523Z,103127.16
2019-01-05T06:42:05.849Z,103123.92
2019-01-05T06:45:14.222Z,103124.42
2019-01-05T06:48:27.084Z,103133.02
2019-01-05T06:51:17.309Z,103129.98
2019-01-05T06:53:56.921Z,103129.84
2019-01-05T06:56:53.072Z,103129.52
2019-01-05T06:59:51.109Z,103128.53
2019-01-05T07:02:45.743Z,103124.48
2019-01-05T07:05:57.422Z,103130.20
2019-01-05T07:08:50.763Z,103129.71
2019-01-05T07:11:42.816Z,103131.34
2019-01-05T07:14:51.376Z,103127.16
2019-01-05T07:17:48.915Z,103124.48
2019-01-05T07:20:37.630Z,103130.95
2019-01-05T07:23:43.162Z,103133.50
2019-01-05T07:26:53.246Z,103135.49
2019-01-05T07:30:16.595Z,103142.52
2019-01-05T07:33:15.345Z,103143.97
2019-01-05T07:36:09.995Z,103145.41
2019-01-05T07:38:49.131Z,103145.84
2019-01-05T07:41:45.623Z,103145.05
2019-01-05T07:44:49.469Z,103148.52
2019-01-05T07:48:14.829Z,103146.10
2019-01-05T07:51:19.838Z,103146.42
2019-01-05T07:54:11.692Z,103156.83
2019-01-05T07:56:57.182Z,103153.26
2019-01-05T07:59:59.284Z,103147.21
2019-01-05T08:03:09.002Z,103145.54
2019-01-05T08:05:51.595Z,103147.21
2019-01-05T08:08:49.028Z,103151.45
2019-01-05T08:12:00.891Z,103148.02
2019-01-05T08:15:11.736Z,103152.83
2019-01-05T08:18:09.879Z,103145.05
2019-01-05T08:21:22.781Z,103154.56
2019-01-05T08:24:26.312Z,103148.52
2019-01-05T08:27:37.152Z,103149.76
2019-01-05T08:30:30.313Z,103145.41
2019-01-05T08:33:23.328Z,103139.00
2019-01-05T08:36:36.391Z,103145.28
2019-01-05T08:39:45.579Z,103144.37
2019-01-05T08:43:02.181Z,103150.16
2019-01-05T08:46:15.476Z,103151.53
2019-01-05T08:49:25.756Z,103140.12
2019-01-05T08:52:23.395Z,103149.73
2019-01-05T08:55:21.228Z,103145.98
2019-01-05T08:58:33.643Z,103144.67
2019-01-05T09:01:34.961Z,103146.04
2019-01-05T09:04:41.852Z,103150.46
2019-01-05T09:08:05.305Z,103157.06
2019-01-05T09:11:18.170Z,103156.58
2019-01-05T09:14:21.983Z,103159.26
2019-01-05T09:17:13.609Z,103167.67
2019-01-05T09:19:59.024Z,103170.22
2019-01-05T09:22:58.152Z,103169.92
2019-01-05T09:26:23.058Z,103170.36
2019-01-05T09:29:15.882Z,103170.91
2019-01-05T09:32:24.164Z,103164.44
2019-01-05T09:35:26.492Z,103172.22
2019-01-05T09:38:19.035Z,103166.92
2019-01-05T09:41:20.800Z,103168.06
2019-01-05T09:44:18.420Z,103171.30
2019-01-05T09:47:22.373Z,103175.59
2019-01-05T09:50:27.706Z,103173.47
2019-01-05T09:53:13.377Z,103177.98
2019-01-05T09:56:11.212Z,103177.53
2019-01-05T09:59:11.748Z,103176.84
2019-01-05T10:02:09.362Z,103174.61
2019-01-05T10:04:55.023Z,103174.84
2019-01-05T10:07:40.669Z,103173.36
2019-01-05T10:10:31.741Z,103175.17
2019-01-05T10:13:14.360Z,103180.41
2019-01-05T10:16:32.353Z,103181.22
2019-01-05T10:19:40.424Z,103180.47
2019-01-05T10:23:03.930Z,103181.78
2019-01-05T10:25:46.645Z,103182.53
2019-01-05T10:28:47.527Z,103178.02
2019-01-05T10:31:47.077Z,103182.00
2019-01-05T10:34:58.561Z,103181.58
2019-01-05T10:38:17.586Z,103181.38
2019-01-05T10:41:33.488Z,103181.09
2019-01-05T10:44:16.331Z,103174.55
2019-01-05T10:47:01.834Z,103168.85
2019-01-05T10:50:04.827Z,103167.94
2019-01-05T10:52:53.717Z,103167.94
2019-01-05T10:55:54.289Z,103174.55
2019-01-05T10:58:46.361Z,103176.28
2019-01-05T11:01:32.034Z,103174.84
2019-01-05T11:04:44.236Z,103174.91
2019-01-05T11:07:30.129Z,103168.23
2019-01-05T11:10:49.184Z,103166.36
2019-01-05T11:14:01.963Z,103165.61
2019-01-05T11:16:53.628Z,103167.11
2019-01-05T11:20:07.287Z,103167.53
2019-01-05T11:23:15.549Z,103156.70
2019-01-05T11:26:08.965Z,103168.84
2019-01-05T11:29:25.115Z,103166.23
2019-01-05T11:32:23.175Z,103165.73
2019-01-05T11:35:26.924Z,103161.38
2019-01-05T11:38:15.854Z,103159.62
2019-01-05T11:41:13.499Z,103164.23
2019-01-05T11:44:22.174Z,103161.25
2019-01-05T11:47:10.899Z,103160.76
2019-01-05T11:50:14.663Z,103153.41
2019-01-05T11:53:12.630Z,103147.48
2019-01-05T11:56:18.057Z,103153.75
2019-01-05T11:59:16.053Z,103151.13
2019-01-05T12:02:19.771Z,103145.73
2019-01-05T12:04:59.562Z,103148.09
2019-01-05T12:08:12.556Z,103145.54
2019-01-05T12:11:11.320Z,103146.23
2019-01-05T12:14:19.871Z,103146.65
2019-01-05T12:17:02.713Z,103141.28
2019-01-05T12:19:39.210Z,103142.78
2019-01-05T12:22:29.109Z,103138.92
2019-01-05T12:25:29.961Z,103137.97
2019-01-05T12:28:38.387Z,103132.93
2019-01-05T12:31:30.368Z,103137.17
2019-01-05T12:34:26.742Z,103132.66
2019-01-05T12:37:35.137Z,103132.98
2019-01-05T12:40:45.042Z,103132.66
2019-01-05T12:43:47.718Z,103129.27
2019-01-05T12:46:49.549Z,103128.37
2019-01-05T12:49:40.857Z,103134.49
2019-01-05T12:52:38.815Z,103123.01
2019-01-05T12:55:32.237Z,103121.70
2019-01-05T12:58:45.334Z,103122.88
2019-01-05T13:01:53.852Z,103128.50
2019-01-05T13:04:57.431Z,103125.95
2019-01-05T13:07:52.153Z,103121.40
2019-01-05T13:11:13.898Z,103129.39
2019-01-05T13:14:05.510Z,103133.50
2019-01-05T13:17:19.535Z,103130.19
2019-01-05T13:20:31.305Z,103129.13
2019-01-05T13:23:19.848Z,103134.53
2019-01-05T13:26:14.269Z,103126.20
2019-01-05T13:29:22.646Z,103134.03
2019-01-05T13:32:24.308Z,103138.20
2019-01-05T13:35:21.018Z,103136.69
2019-01-05T13:38:30.981Z,103134.89
2019-01-05T13:41:24.244Z,103132.70
2019-01-05T13:44:26.992Z,103132.70
2019-01-05T13:47:31.157Z,103132.42
2019-01-05T13:50:34.529Z,103139.77
2019-01-05T13:53:26.044Z,103139.27
2019-01-05T13:56:00.089Z,103144.11
2019-01-05T13:58:36.748Z,103140.86
2019-01-05T14:01:07.918Z,103140.09
2019-01-05T14:03:56.858Z,103148.42
2019-01-05T14:06:27.769Z,103141.50
2019-01-05T14:09:01.397Z,103138.39
2019-01-05T14:11:32.325Z,103136.16
2019-01-05T14:14:24.212Z,103134.05
2019-01-05T14:16:55.086Z,103131.29
2019-01-05T14:19:38.026Z,103135.00
2019-01-05T14:22:25.324Z,103135.07
2019-01-05T14:24:59.435Z,103135.95
2019-01-05T14:27:46.453Z,103136.77
2019-01-05T14:30:20.321Z,103135.56
2019-01-05T14:33:03.230Z,103140.37
2019-01-05T14:35:50.666Z,103142.56
2019-01-05T14:38:24.346Z,103137.76
2019-01-05T14:40:57.982Z,103131.86
2019-01-05T14:43:31.501Z,103136.27
2019-01-05T14:46:18.899Z,103138.46
2019-01-05T14:48:49.797Z,103145.06
2019-01-05T14:51:20.664Z,103149.05
2019-01-05T14:53:51.566Z,103152.48
2019-01-05T14:56:31.612Z,103145.56
2019-01-05T14:59:19.086Z,103157.05
2019-01-05T15:02:01.995Z,103151.67
2019-01-05T15:04:48.259Z,103157.89
2019-01-05T15:07:25.227Z,103153.41
2019-01-05T15:10:05.368Z,103156.47
2019-01-05T15:12:42.291Z,103157.47
2019-01-05T15:15:22.004Z,103160.82
2019-01-05T15:17:56.186Z,103153.47
2019-01-05T15:20:35.893Z,103152.16
2019-01-05T15:23:15.620Z,103146.59
2019-01-05T15:25:52.336Z,103155.52
2019-01-05T15:28:26.201Z,103147.53
2019-01-05T15:30:57.057Z,103155.77
2019-01-05T15:33:42.995Z,103159.69
2019-01-05T15:36:19.989Z,103153.08
2019-01-05T15:38:53.567Z,103149.23
2019-01-05T15:41:40.776Z,103151.31
2019-01-05T15:44:20.723Z,103149.84
2019-01-05T15:46:54.277Z,103150.75
2019-01-05T15:49:42.895Z,103149.44
2019-01-05T15:52:30.121Z,103152.88
2019-01-05T15:55:17.554Z,103146.76
2019-01-05T15:57:48.433Z,103150.92
2019-01-05T16:00:35.729Z,103152.02
2019-01-05T16:03:06.624Z,103150.78
2019-01-05T16:05:40.215Z,103147.67
2019-01-05T16:08:16.890Z,103142.95
2019-01-05T16:11:04.284Z,103146.86
2019-01-05T16:13:35.186Z,103148.17
2019-01-05T16:16:06.083Z,103160.17
2019-01-05T16:18:53.221Z,103154.95
2019-01-05T16:21:29.826Z,103161.83
2019-01-05T16:24:15.832Z,103155.55
2019-01-05T16:27:02.740Z,103159.39
2019-01-05T16:29:50.174Z,103156.70
2019-01-05T16:32:26.911Z,103165.03
2019-01-05T16:34:58.192Z,103160.62
2019-01-05T16:37:45.484Z,103159.70
2019-01-05T16:40:31.983Z,103168.28
2019-01-05T16:43:18.940Z,103167.47
2019-01-05T16:46:06.401Z,103165.09
2019-01-05T16:48:46.498Z,103164.53
2019-01-05T16:51:33.841Z,103163.30
2019-01-05T16:54:19.845Z,103167.64
2019-01-05T16:56:59.533Z,103167.22
2019-01-05T16:59:45.563Z,103170.59
2019-01-05T17:02:29.768Z,103170.59
2019-01-05T17:05:12.750Z,103168.80
2019-01-05T17:08:02.038Z,103174.98
2019-01-05T17:10:51.330Z,103180.84
2019-01-05T17:13:34.096Z,103177.84
2019-01-05T17:16:21.456Z,103180.03
2019-01-05T17:18:55.825Z,103180.84
2019-01-05T17:21:38.968Z,103181.58
2019-01-05T17:24:12.909Z,103182.74
2019-01-05T17:26:43.745Z,103187.66
2019-01-05T17:29:29.924Z,103181.58
2019-01-05T17:32:03.819Z,103184.12
2019-01-05T17:34:51.088Z,103182.89
2019-01-05T17:37:22.301Z,103180.05
2019-01-05T17:40:07.965Z,103179.91
2019-01-05T17:42:57.293Z,103179.41
2019-01-05T17:45:33.961Z,103176.66
2019-01-05T17:48:11.436Z,103175.98
2019-01-05T17:50:58.732Z,103178.03
2019-01-05T17:53:46.120Z,103181.71
2019-01-05T17:56:33.582Z,103181.71
2019-01-05T17:59:19.907Z,103181.06
2019-01-05T18:01:59.790Z,103180.57
2019-01-05T18:04:47.213Z,103177.46
2019-01-05T18:07:34.396Z,103173.89
2019-01-05T18:10:21.673Z,103172.16
2019-01-05T18:12:52.587Z,103176.00
2019-01-05T18:15:42.393Z,103171.77
2019-01-05T18:18:31.432Z,103171.77
2019-01-05T18:21:02.316Z,103180.49
2019-01-05T18:23:41.783Z,103179.84
2019-01-05T18:26:21.602Z,103181.23
2019-01-05T18:28:59.081Z,103179.35
2019-01-05T18:31:33.016Z,103174.55
2019-01-05T18:34:06.690Z,103174.41
2019-01-05T18:36:37.630Z,103172.44
2019-01-05T18:39:25.517Z,103162.45
2019-01-05T18:41:56.398Z,103177.31
2019-01-05T18:44:33.348Z,103174.05
2019-01-05T18:47:13.189Z,103173.25
2019-01-05T18:49:56.483Z,103173.67
2019-01-05T18:52:43.748Z,103180.09
2019-01-05T18:55:20.823Z,103172.44
2019-01-05T18:57:54.902Z,103172.02
2019-01-05T19:00:25.846Z,103176.09
2019-01-05T19:03:06.125Z,103178.63
2019-01-05T19:05:38.448Z,103180.36
2019-01-05T19:08:15.004Z,103179.48
2019-01-05T19:10:51.972Z,103173.48
2019-01-05T19:13:39.052Z,103176.37
2019-01-05T19:16:26.396Z,103174.33
2019-01-05T19:19:00.165Z,103174.64
2019-01-05T19:21:43.505Z,103178.63
2019-01-05T19:24:26.751Z,103176.86
2019-01-05T19:27:18.054Z,103171.14
2019-01-05T19:29:49.061Z,103177.03
2019-01-05T19:32:22.902Z,103172.03
2019-01-05T19:34:53.775Z,103165.35
2019-01-05T19:37:36.827Z,103162.52
2019-01-05T19:40:25.532Z,103175.64
2019-01-05T19:43:08.306Z,103175.07
2019-01-05T19:45:39.226Z,103170.93
2019-01-05T19:48:16.162Z,103166.02
2019-01-05T19:51:05.308Z,103168.24
2019-01-05T19:53:52.624Z,103169.78
2019-01-05T19:56:35.515Z,103165.30
2019-01-05T19:59:15.391Z,103169.06
2019-01-05T20:01:52.052Z,103177.23
2019-01-05T20:04:39.315Z,103185.06
2019-01-05T20:07:29.634Z,103180.38
2019-01-05T20:10:00.542Z,103174.63
2019-01-05T20:12:47.517Z,103165.64
2019-01-05T20:15:27.333Z,103162.88
2019-01-05T20:18:04.164Z,103165.64
2019-01-05T20:20:40.904Z,103162.95
2019-01-05T20:23:14.496Z,103161.73
2019-01-05T20:25:51.653Z,103153.02
2019-01-05T20:28:22.544Z,103151.14
2019-01-05T20:30:53.446Z,103160.27
2019-01-05T20:33:30.633Z,103159.35
2019-01-05T20:36:07.115Z,103154.63
2019-01-05T20:38:40.995Z,103157.97
2019-01-05T20:41:11.933Z,103146.80
2019-01-05T20:43:59.372Z,103156.67
2019-01-05T20:46:30.344Z,103157.32
2019-01-05T20:49:10.449Z,103156.86
2019-01-05T20:51:41.357Z,103159.78
2019-01-05T20:54:28.442Z,103156.44
2019-01-05T20:57:08.339Z,103154.71
2019-01-05T20:59:55.369Z,103146.50
2019-01-05T21:02:26.284Z,103139.78
2019-01-05T21:05:06.300Z,103139.32
2019-01-05T21:07:39.911Z,103140.12
2019-01-05T21:10:27.993Z,103141.85
2019-01-05T21:12:58.907Z,103145.69
2019-01-05T21:15:44.832Z,103140.20
2019-01-05T21:18:31.962Z,103143.23
2019-01-05T21:21:06.051Z,103149.84
2019-01-05T21:23:37.050Z,103140.44
2019-01-05T21:26:07.982Z,103135.21
2019-01-05T21:28:39.371Z,103136.28
2019-01-05T21:31:22.298Z,103135.64
2019-01-05T21:33:58.683Z,103135.71
2019-01-05T21:36:38.626Z,103147.38
2019-01-05T21:39:27.225Z,103138.32
2019-01-05T21:42:10.227Z,103144.84
2019-01-05T21:44:57.217Z,103144.04
2019-01-05T21:47:44.483Z,103149.41
2019-01-05T21:50:30.351Z,103147.38
2019-01-05T21:53:04.195Z,103140.35
2019-01-05T21:55:35.115Z,103144.34
2019-01-05T21:58:06.030Z,103131.22
2019-01-05T22:00:36.936Z,103129.41
2019-01-05T22:03:07.760Z,103129.11
2019-01-05T22:05:42.043Z,103130.72
2019-01-05T22:08:12.950Z,103129.03
2019-01-05T22:10:43.747Z,103134.48
2019-01-05T22:13:17.635Z,103132.38
2019-01-05T22:15:51.336Z,103134.25
2019-01-05T22:18:34.233Z,103138.66
2019-01-05T22:21:17.086Z,103138.23
2019-01-05T22:23:47.987Z,103142.80
2019-01-05T22:26:33.918Z,103133.67
2019-01-05T22:29:10.778Z,103136.78
2019-01-05T22:31:57.974Z,103138.39
2019-01-05T22:34:31.887Z,103138.89
2019-01-05T22:37:18.979Z,103146.71
2019-01-05T22:40:01.913Z,103150.28
2019-01-05T22:42:39.072Z,103141.48
2019-01-05T22:45:10.415Z,103146.14
2019-01-05T22:47:57.698Z,103136.01
2019-01-05T22:50:40.556Z,103141.16
2019-01-05T22:53:27.513Z,103137.23
2019-01-05T22:56:13.389Z,103145.41
2019-01-05T22:58:44.297Z,103141.00
2019-01-05T23:01:18.065Z,103140.12
2019-01-05T23:03:51.654Z,103141.16
2019-01-05T23:06:25.847Z,103137.23
2019-01-05T23:08:56.749Z,103144.26
2019-01-05T23:11:34.153Z,103135.27
2019-01-05T23:14:11.114Z,103132.66
2019-01-05T23:16:42.030Z,103134.96
2019-01-05T23:19:12.982Z,103136.19
2019-01-05T23:21:46.600Z,103134.89
2019-01-05T23:24:23.482Z,103135.77
2019-01-05T23:26:57.053Z,103133.66
2019-01-05T23:29:44.150Z,103129.89
2019-01-05T23:32:31.371Z,103130.20
2019-01-05T23:35:18.615Z,103132.35
2019-01-05T23:37:52.486Z,103131.93
2019-01-05T23:40:35.413Z,103126.05
2019-01-05T23:43:18.298Z,103125.31
2019-01-05T23:45:51.620Z,103125.54
2019-01-05T23:48:38.882Z,103124.80
2019-01-05T23:51:26.210Z,103129.22
2019-01-05T23:54:13.331Z,103132.71
2019-01-05T23:56:56.305Z,103128.30
2019-01-05T23:59:27.220Z,103128.37
